KDNS

Details ICAO KDNS
Name DENISON MUNI
Region United States
Timezone America/Chicago (UTC-5.0)
Plans Departing 0
Arriving 1
Stats Elevation 1,276 ft / 389 m (AMSL)
Location 41.986816° -95.381434°
Runways 3
Magnetic Variation 2.069° E
Sunrise 2018-05-23 10:55:28 UTC / 2018-05-23 05:55:28 Local
Sunset 2018-05-24 01:44:00 UTC / 2018-05-23 20:44:00 Local
Advertisement - Login to hide

Runways

ID Width Length Bearing (true) Bearing (mag) Surface Threshold Offset Overrun Length
06 175 ft / 53 m 1,959 ft / 597 m 62.28° 60.21° Grass 0 ft / 0 m 0 ft / 0 m
12 75 ft / 23 m 4,993 ft / 1,522 m 124.37° 122.30° Concrete 0 ft / 0 m 0 ft / 0 m
18 105 ft / 32 m 2,129 ft / 649 m 179.01° 176.94° Grass 0 ft / 0 m 0 ft / 0 m
24 175 ft / 53 m 1,959 ft / 597 m 242.28° 240.21° Grass 0 ft / 0 m 0 ft / 0 m
30 75 ft / 23 m 4,993 ft / 1,522 m 304.38° 302.31° Concrete 0 ft / 0 m 0 ft / 0 m
36 105 ft / 32 m 2,129 ft / 649 m 359.01° 356.94° Grass 0 ft / 0 m 0 ft / 0 m

Map

Weather


0- 5 10 15 20 25 30 35+ Temperature / ° C

Clouds and Precipitation
Forecast for 2018-05-23 18:00 UTC. Updated 2 hours ago

Ground ~20,000 ft ~40,000 ft Winds

METAR

KDNS 231835Z AUTO 16013G20KT 10SM FEW050 30/18 A3006 RMK AO2

TAF

Not found

Frequencies

Recorded 119.95 MHz AWOS 3
Unicom 122.80 MHz CTAF/UNICOM
Warning: Do not use this data for real-world aviation or navigation. No guarantee of current accuracy is given.